createdAt,value
2019-02-23T00:01:26.169Z,16.37
2019-02-23T00:03:55.021Z,17.00
2019-02-23T00:06:29.911Z,16.53
2019-02-23T00:08:54.385Z,15.20
2019-02-23T00:11:25.555Z,14.90
2019-02-23T00:13:54.411Z,14.37
2019-02-23T00:16:23.265Z,15.53
2019-02-23T00:18:52.119Z,16.10
2019-02-23T00:21:20.977Z,14.20
2019-02-23T00:23:49.811Z,15.47
2019-02-23T00:26:18.725Z,14.37
2019-02-23T00:28:47.560Z,15.30
2019-02-23T00:31:16.463Z,15.87
2019-02-23T00:33:45.311Z,17.17
2019-02-23T00:36:14.186Z,14.80
2019-02-23T00:38:43.025Z,15.40
2019-02-23T00:41:11.920Z,14.73
2019-02-23T00:43:40.755Z,14.90
2019-02-23T00:46:09.586Z,15.80
2019-02-23T00:48:38.438Z,16.13
2019-02-23T00:51:07.325Z,16.33
2019-02-23T00:53:36.197Z,19.27
2019-02-23T00:56:05.038Z,14.80
2019-02-23T00:58:34.024Z,15.00
2019-02-23T01:01:02.941Z,16.57
2019-02-23T01:03:31.807Z,16.27
2019-02-23T01:06:00.668Z,15.47
2019-02-23T01:08:29.531Z,17.50
2019-02-23T01:10:58.609Z,16.47
2019-02-23T01:13:27.501Z,17.37
2019-02-23T01:15:58.408Z,16.83
2019-02-23T01:18:27.166Z,17.40
2019-02-23T01:20:55.994Z,18.10
2019-02-23T01:23:24.885Z,16.73
2019-02-23T01:25:53.751Z,17.80
2019-02-23T01:28:22.623Z,19.33
2019-02-23T01:30:51.448Z,16.43
2019-02-23T01:33:20.319Z,17.77
2019-02-23T01:35:49.198Z,19.13
2019-02-23T01:38:18.198Z,17.33
2019-02-23T01:40:47.021Z,16.83
2019-02-23T01:43:15.871Z,15.43
2019-02-23T01:45:44.749Z,19.53
2019-02-23T01:48:13.630Z,17.33
2019-02-23T01:50:42.463Z,18.20
2019-02-23T01:53:11.379Z,17.97
2019-02-23T01:55:40.179Z,17.60
2019-02-23T01:58:09.043Z,18.77
2019-02-23T02:00:38.878Z,18.53
2019-02-23T02:03:07.815Z,17.83
2019-02-23T02:05:36.700Z,16.63
2019-02-23T02:08:05.568Z,16.33
2019-02-23T02:10:34.509Z,15.73
2019-02-23T02:13:03.407Z,17.93
2019-02-23T02:15:32.210Z,18.10
2019-02-23T02:18:01.067Z,19.30
2019-02-23T02:20:29.958Z,15.67
2019-02-23T02:22:58.867Z,17.70
2019-02-23T02:25:27.948Z,19.63
2019-02-23T02:27:56.850Z,17.27
2019-02-23T02:30:25.687Z,16.33
2019-02-23T02:32:54.675Z,18.50
2019-02-23T02:35:23.555Z,17.30
2019-02-23T02:37:52.443Z,19.17
2019-02-23T02:40:21.320Z,17.20
2019-02-23T02:42:50.226Z,19.07
2019-02-23T02:45:19.105Z,19.50
2019-02-23T02:47:47.948Z,20.30
2019-02-23T02:50:24.193Z,17.27
2019-02-23T02:52:47.367Z,18.53
2019-02-23T02:55:16.333Z,19.20
2019-02-23T02:57:45.136Z,21.97
2019-02-23T03:00:14.026Z,21.47
2019-02-23T03:02:42.850Z,20.83
2019-02-23T03:05:11.728Z,19.52
2019-02-23T03:07:40.570Z,21.50
2019-02-23T03:10:09.688Z,18.87
2019-02-23T03:12:38.602Z,19.83
2019-02-23T03:15:08.109Z,18.77
2019-02-23T03:17:36.956Z,20.50
2019-02-23T03:20:06.234Z,20.40
2019-02-23T03:22:35.117Z,18.60
2019-02-23T03:25:03.997Z,20.87
2019-02-23T03:27:32.885Z,20.77
2019-02-23T03:30:01.793Z,20.45
2019-02-23T03:32:30.603Z,18.67
2019-02-23T03:34:59.496Z,19.67
2019-02-23T03:37:28.352Z,19.53
2019-02-23T03:39:57.373Z,17.90
2019-02-23T03:42:26.674Z,20.13
2019-02-23T03:44:55.563Z,19.60
2019-02-23T03:47:24.401Z,19.33
2019-02-23T03:49:53.283Z,23.90
2019-02-23T03:52:22.138Z,22.13
2019-02-23T03:54:51.010Z,20.43
2019-02-23T03:57:19.877Z,21.20
2019-02-23T03:59:48.751Z,20.57
2019-02-23T04:02:17.603Z,18.90
2019-02-23T04:04:46.545Z,20.80
2019-02-23T04:07:15.410Z,22.37
2019-02-23T04:09:44.296Z,21.90
2019-02-23T04:12:13.152Z,22.22
2019-02-23T04:14:42.077Z,22.10
2019-02-23T04:17:10.908Z,21.07
2019-02-23T04:19:39.746Z,21.97
2019-02-23T04:22:08.633Z,21.25
2019-02-23T04:24:37.486Z,23.05
2019-02-23T04:27:06.387Z,21.97
2019-02-23T04:29:35.300Z,22.20
2019-02-23T04:32:04.175Z,22.50
2019-02-23T04:34:33.114Z,20.52
2019-02-23T04:37:01.998Z,23.18
2019-02-23T04:39:30.896Z,24.95
2019-02-23T04:41:59.773Z,25.25
2019-02-23T04:44:28.603Z,26.00
2019-02-23T04:46:57.478Z,25.43
2019-02-23T04:49:26.333Z,23.92
2019-02-23T04:51:55.196Z,28.38
2019-02-23T04:54:24.028Z,26.10
2019-02-23T04:56:52.899Z,25.72
2019-02-23T04:59:21.740Z,25.43
2019-02-23T05:01:50.601Z,25.77
2019-02-23T05:04:19.586Z,25.27
2019-02-23T05:06:48.455Z,28.73
2019-02-23T05:09:17.297Z,25.60
2019-02-23T05:11:46.253Z,27.98
2019-02-23T05:14:15.138Z,24.75
2019-02-23T05:16:44.091Z,27.37
2019-02-23T05:19:12.945Z,26.93
2019-02-23T05:21:41.814Z,26.67
2019-02-23T05:24:10.687Z,26.20
2019-02-23T05:26:39.682Z,28.77
2019-02-23T05:29:08.594Z,25.47
2019-02-23T05:31:37.581Z,25.70
2019-02-23T05:34:06.420Z,28.50
2019-02-23T05:36:35.295Z,27.55
2019-02-23T05:39:05.055Z,26.77
2019-02-23T05:41:33.999Z,28.17
2019-02-23T05:44:02.964Z,24.82
2019-02-23T05:46:32.320Z,27.37
2019-02-23T05:49:01.193Z,29.00
2019-02-23T05:51:38.411Z,27.62
2019-02-23T05:54:00.622Z,27.87
2019-02-23T05:56:29.513Z,26.02
2019-02-23T05:58:58.393Z,29.70
2019-02-23T06:01:27.420Z,29.23
2019-02-23T06:03:56.283Z,29.52
2019-02-23T06:06:25.195Z,26.12
2019-02-23T06:08:54.036Z,28.60
2019-02-23T06:11:23.035Z,25.75
2019-02-23T06:13:51.913Z,27.23
2019-02-23T06:16:20.953Z,28.45
2019-02-23T06:18:49.851Z,29.03
2019-02-23T06:21:18.689Z,26.37
2019-02-23T06:23:48.555Z,28.52
2019-02-23T06:26:17.536Z,25.70
2019-02-23T06:28:48.780Z,29.27
2019-02-23T06:31:17.614Z,27.37
2019-02-23T06:33:46.559Z,28.77
2019-02-23T06:36:15.415Z,29.63
2019-02-23T06:38:44.324Z,29.98
2019-02-23T06:41:13.238Z,30.57
2019-02-23T06:43:42.128Z,26.77
2019-02-23T06:46:11.114Z,26.37
2019-02-23T06:48:40.104Z,29.95
2019-02-23T06:51:08.979Z,27.17
2019-02-23T06:53:37.854Z,31.02
2019-02-23T06:56:06.704Z,27.50
2019-02-23T06:58:35.579Z,27.30
2019-02-23T07:01:04.550Z,28.73
2019-02-23T07:03:33.455Z,31.10
2019-02-23T07:06:02.288Z,29.10
2019-02-23T07:08:31.238Z,29.60
2019-02-23T07:11:00.112Z,25.93
2019-02-23T07:13:29.122Z,28.50
2019-02-23T07:15:58.209Z,32.40
2019-02-23T07:18:27.123Z,31.17
2019-02-23T07:20:56.084Z,26.20
2019-02-23T07:23:24.986Z,27.43
2019-02-23T07:25:53.824Z,26.83
2019-02-23T07:28:22.694Z,29.23
2019-02-23T07:30:51.538Z,27.40
2019-02-23T07:33:32.469Z,26.67
2019-02-23T07:35:51.049Z,27.43
2019-02-23T07:38:19.966Z,28.30
2019-02-23T07:40:48.824Z,24.73
2019-02-23T07:43:17.707Z,27.33
2019-02-23T07:45:46.715Z,23.57
2019-02-23T07:48:15.809Z,26.03
2019-02-23T07:50:44.670Z,27.60
2019-02-23T07:53:13.917Z,26.73
2019-02-23T07:55:43.039Z,27.50
2019-02-23T07:58:11.973Z,26.00
2019-02-23T08:00:40.835Z,27.47
2019-02-23T08:03:09.714Z,26.67
2019-02-23T08:05:38.592Z,28.07
2019-02-23T08:08:07.482Z,26.97
2019-02-23T08:10:36.331Z,26.53
2019-02-23T08:13:05.197Z,25.40
2019-02-23T08:15:34.138Z,26.80
2019-02-23T08:18:03.093Z,27.90
2019-02-23T08:20:31.987Z,25.47
2019-02-23T08:23:00.857Z,27.07
2019-02-23T08:25:29.692Z,25.10
2019-02-23T08:27:58.621Z,27.50
2019-02-23T08:30:27.545Z,27.57
2019-02-23T08:32:56.534Z,26.47
2019-02-23T08:35:25.395Z,26.57
2019-02-23T08:37:54.411Z,27.80
2019-02-23T08:40:23.275Z,28.13
2019-02-23T08:42:52.124Z,28.10
2019-02-23T08:45:20.990Z,27.37
2019-02-23T08:47:49.849Z,30.30
2019-02-23T08:50:18.894Z,27.83
2019-02-23T08:52:49.443Z,26.97
2019-02-23T08:55:18.485Z,25.83
2019-02-23T08:57:47.345Z,26.93
2019-02-23T09:00:16.573Z,27.47
2019-02-23T09:02:45.456Z,28.87
2019-02-23T09:05:14.368Z,27.17
2019-02-23T09:07:43.263Z,26.83
2019-02-23T09:10:12.533Z,31.47
2019-02-23T09:12:41.392Z,27.70
2019-02-23T09:15:10.266Z,25.40
2019-02-23T09:17:39.234Z,22.50
2019-02-23T09:20:08.498Z,24.17
2019-02-23T09:22:37.344Z,26.93
2019-02-23T09:25:06.514Z,27.57
2019-02-23T09:27:35.481Z,23.73
2019-02-23T09:30:04.945Z,25.07
2019-02-23T09:32:33.884Z,29.77
2019-02-23T09:35:02.776Z,24.87
2019-02-23T09:37:31.670Z,25.27
2019-02-23T09:40:01.550Z,26.83
2019-02-23T09:42:30.387Z,25.97
2019-02-23T09:44:59.261Z,25.50
2019-02-23T09:47:28.198Z,24.17
2019-02-23T09:49:57.056Z,26.53
2019-02-23T09:52:25.890Z,26.30
2019-02-23T09:54:54.780Z,25.80
2019-02-23T09:57:23.790Z,26.03
2019-02-23T09:59:52.658Z,25.40
2019-02-23T10:02:21.490Z,25.93
2019-02-23T10:04:50.539Z,26.53
2019-02-23T10:07:19.467Z,26.43
2019-02-23T10:09:48.333Z,29.33
2019-02-23T10:12:17.222Z,28.23
2019-02-23T10:14:46.137Z,25.47
2019-02-23T10:17:14.947Z,28.43
2019-02-23T10:19:43.917Z,26.83
2019-02-23T10:22:12.809Z,31.43
2019-02-23T10:24:41.648Z,27.20
2019-02-23T10:27:10.571Z,28.13
2019-02-23T10:29:39.409Z,25.83
2019-02-23T10:32:08.409Z,23.40
2019-02-23T10:34:37.343Z,25.60
2019-02-23T10:37:06.333Z,25.43
2019-02-23T10:39:35.441Z,26.57
2019-02-23T10:42:04.421Z,26.27
2019-02-23T10:44:33.308Z,25.90
2019-02-23T10:47:02.212Z,23.57
2019-02-23T10:49:31.042Z,24.10
2019-02-23T10:51:59.912Z,24.07
2019-02-23T10:54:28.869Z,23.13
2019-02-23T10:56:57.770Z,23.73
2019-02-23T10:59:26.638Z,26.27
2019-02-23T11:01:55.652Z,24.33
2019-02-23T11:04:24.531Z,26.80
2019-02-23T11:06:53.475Z,25.07
2019-02-23T11:09:25.826Z,21.97
2019-02-23T11:11:54.879Z,22.80
2019-02-23T11:14:23.733Z,26.23
2019-02-23T11:16:52.613Z,22.90
2019-02-23T11:19:21.546Z,24.90
2019-02-23T11:21:50.422Z,23.77
2019-02-23T11:24:19.321Z,25.10
2019-02-23T11:26:48.227Z,21.97
2019-02-23T11:29:17.078Z,24.27
2019-02-23T11:31:46.006Z,21.17
2019-02-23T11:34:14.847Z,21.90
2019-02-23T11:36:43.883Z,21.37
2019-02-23T11:39:13.799Z,21.83
2019-02-23T11:41:42.689Z,22.43
2019-02-23T11:44:11.566Z,22.30
2019-02-23T11:46:59.249Z,23.07
2019-02-23T11:49:10.951Z,22.03
2019-02-23T11:51:40.079Z,20.50
2019-02-23T11:54:08.934Z,21.53
2019-02-23T11:56:37.822Z,21.57
2019-02-23T11:59:06.767Z,20.40
2019-02-23T12:01:35.662Z,18.43
2019-02-23T12:04:04.508Z,19.43
2019-02-23T12:06:33.419Z,17.20
2019-02-23T12:09:02.611Z,18.37
2019-02-23T12:11:31.509Z,21.73
2019-02-23T12:14:00.366Z,19.47
2019-02-23T12:16:29.300Z,20.43
2019-02-23T12:18:58.162Z,18.53
2019-02-23T12:21:27.156Z,20.10
2019-02-23T12:24:05.640Z,22.17
2019-02-23T12:26:26.663Z,19.50
2019-02-23T12:28:55.718Z,17.93
2019-02-23T12:31:24.663Z,19.27
2019-02-23T12:33:53.511Z,20.90
2019-02-23T12:36:22.367Z,19.27
2019-02-23T12:38:51.339Z,20.00
2019-02-23T12:41:20.187Z,19.17
2019-02-23T12:43:49.080Z,18.20
2019-02-23T12:46:18.019Z,18.37
2019-02-23T12:48:46.912Z,17.47
2019-02-23T12:51:15.764Z,18.63
2019-02-23T12:53:44.658Z,17.37
2019-02-23T12:56:13.490Z,16.60
2019-02-23T12:58:42.452Z,17.77
2019-02-23T13:01:11.305Z,16.33
2019-02-23T13:03:40.338Z,17.57
2019-02-23T13:06:09.166Z,18.47
2019-02-23T13:08:56.133Z,17.63
2019-02-23T13:11:25.034Z,16.63
2019-02-23T13:14:07.982Z,18.13
2019-02-23T13:16:50.441Z,16.73
2019-02-23T13:19:29.202Z,16.17
2019-02-23T13:22:19.965Z,15.17
2019-02-23T13:25:08.604Z,16.00
2019-02-23T13:28:11.632Z,15.03
2019-02-23T13:31:05.433Z,15.43
2019-02-23T13:34:08.784Z,17.63
2019-02-23T13:37:05.741Z,15.60
2019-02-23T13:39:48.051Z,15.07
2019-02-23T13:42:32.086Z,15.90
2019-02-23T13:45:10.895Z,14.97
2019-02-23T13:48:14.290Z,14.90
2019-02-23T13:51:09.636Z,14.27
2019-02-23T13:54:15.791Z,14.03
2019-02-23T13:57:00.951Z,14.70
2019-02-23T13:59:34.767Z,15.60
2019-02-23T14:02:41.016Z,13.83
2019-02-23T14:05:19.408Z,15.40
2019-02-23T14:08:12.291Z,14.60
2019-02-23T14:11:03.296Z,13.50
2019-02-23T14:13:57.239Z,14.77
2019-02-23T14:16:38.917Z,13.23
2019-02-23T14:19:10.835Z,14.83
2019-02-23T14:21:58.053Z,14.47
2019-02-23T14:24:49.777Z,12.80
2019-02-23T14:27:35.831Z,13.20
2019-02-23T14:30:33.010Z,13.07
2019-02-23T14:33:12.607Z,14.13
2019-02-23T14:36:03.779Z,12.87
2019-02-23T14:38:50.467Z,13.73
2019-02-23T14:41:32.984Z,13.90
2019-02-23T14:44:27.009Z,12.97
2019-02-23T14:47:14.979Z,12.87
2019-02-23T14:49:56.588Z,9.93
2019-02-23T14:52:59.729Z,12.00
2019-02-23T14:55:46.644Z,11.30
2019-02-23T14:58:43.566Z,11.13
2019-02-23T15:01:46.630Z,13.83
2019-02-23T15:04:33.135Z,10.37
2019-02-23T15:07:08.606Z,9.57
2019-02-23T15:09:59.463Z,10.83
2019-02-23T15:12:56.531Z,11.23
2019-02-23T15:15:51.288Z,10.90
2019-02-23T15:18:39.456Z,11.73
2019-02-23T15:21:42.513Z,11.50
2019-02-23T15:24:39.181Z,12.60
2019-02-23T15:27:29.666Z,11.53
2019-02-23T15:30:08.211Z,10.37
2019-02-23T15:33:11.495Z,11.60
2019-02-23T15:35:43.665Z,10.77
2019-02-23T15:38:30.142Z,12.90
2019-02-23T15:41:16.796Z,10.70
2019-02-23T15:43:50.035Z,10.57
2019-02-23T15:46:30.643Z,10.63
2019-02-23T15:49:34.945Z,10.27
2019-02-23T15:52:07.344Z,9.23
2019-02-23T15:54:36.357Z,10.03
2019-02-23T15:57:05.161Z,9.97
2019-02-23T15:59:34.081Z,12.67
2019-02-23T16:02:02.992Z,10.23
2019-02-23T16:04:31.955Z,11.00
2019-02-23T16:07:00.815Z,10.67
2019-02-23T16:09:29.696Z,10.90
2019-02-23T16:11:58.647Z,12.40
2019-02-23T16:14:27.949Z,11.50
2019-02-23T16:16:56.838Z,10.37
2019-02-23T16:19:25.663Z,11.40
2019-02-23T16:21:54.594Z,9.50
2019-02-23T16:24:23.426Z,10.33
2019-02-23T16:26:52.338Z,10.23
2019-02-23T16:29:21.197Z,10.97
2019-02-23T16:31:50.261Z,10.40
2019-02-23T16:34:19.093Z,14.33
2019-02-23T16:36:48.078Z,9.73
2019-02-23T16:39:17.024Z,15.03
2019-02-23T16:41:45.923Z,11.00
2019-02-23T16:44:14.739Z,10.93
2019-02-23T16:46:46.251Z,11.47
2019-02-23T16:49:14.161Z,12.63
2019-02-23T16:51:43.137Z,11.53
2019-02-23T16:54:12.072Z,12.30
2019-02-23T16:56:40.989Z,11.03
2019-02-23T16:59:09.866Z,11.07
2019-02-23T17:01:38.742Z,14.20
2019-02-23T17:04:07.686Z,11.33
2019-02-23T17:06:36.575Z,12.53
2019-02-23T17:09:05.667Z,11.83
2019-02-23T17:11:34.556Z,11.57
2019-02-23T17:14:03.486Z,12.73
2019-02-23T17:16:32.491Z,13.33
2019-02-23T17:19:01.380Z,12.53
2019-02-23T17:21:30.300Z,12.43
2019-02-23T17:23:59.288Z,12.20
2019-02-23T17:26:28.224Z,13.20
2019-02-23T17:28:57.117Z,15.57
2019-02-23T17:31:25.955Z,16.27
2019-02-23T17:33:54.851Z,11.30
2019-02-23T17:36:23.677Z,16.93
2019-02-23T17:38:52.583Z,13.77
2019-02-23T17:41:21.392Z,15.77
2019-02-23T17:43:50.245Z,17.07
2019-02-23T17:46:19.086Z,15.30
2019-02-23T17:48:47.962Z,17.63
2019-02-23T17:51:16.872Z,15.43
2019-02-23T17:53:45.902Z,16.47
2019-02-23T17:56:14.760Z,16.37
2019-02-23T17:58:43.636Z,17.67
2019-02-23T18:01:12.506Z,15.23
2019-02-23T18:03:41.440Z,16.27
2019-02-23T18:06:10.312Z,17.97
2019-02-23T18:08:39.222Z,20.40
2019-02-23T18:11:08.579Z,17.90
2019-02-23T18:13:37.479Z,19.70
2019-02-23T18:16:06.298Z,20.60
2019-02-23T18:18:35.283Z,27.43
2019-02-23T18:21:04.103Z,24.93
2019-02-23T18:23:33.190Z,25.77
2019-02-23T18:26:02.029Z,23.43
2019-02-23T18:28:30.936Z,22.23
2019-02-23T18:30:59.820Z,19.63
2019-02-23T18:33:28.716Z,15.40
2019-02-23T18:35:57.623Z,20.57
2019-02-23T18:38:26.594Z,18.63
2019-02-23T18:40:55.549Z,18.47
2019-02-23T18:43:24.461Z,18.57
2019-02-23T18:45:53.833Z,16.53
2019-02-23T18:48:22.814Z,15.80
2019-02-23T18:50:51.760Z,17.73
2019-02-23T18:53:20.677Z,17.50
2019-02-23T18:55:49.985Z,16.30
2019-02-23T18:58:18.833Z,18.10
2019-02-23T19:00:47.729Z,18.20
2019-02-23T19:03:16.718Z,25.53
2019-02-23T19:05:49.847Z,24.43
2019-02-23T19:08:16.139Z,22.63
2019-02-23T19:10:44.975Z,23.03
2019-02-23T19:13:13.842Z,29.40
2019-02-23T19:15:42.809Z,39.97
2019-02-23T19:18:11.691Z,31.07
2019-02-23T19:20:41.489Z,24.53
2019-02-23T19:23:10.403Z,22.90
2019-02-23T19:25:39.380Z,18.13
2019-02-23T19:28:08.224Z,20.53
2019-02-23T19:30:37.091Z,20.77
2019-02-23T19:33:05.928Z,19.63
2019-02-23T19:35:34.822Z,20.30
2019-02-23T19:38:03.728Z,18.33
2019-02-23T19:40:32.725Z,24.87
2019-02-23T19:43:01.595Z,26.33
2019-02-23T19:45:30.482Z,24.50
2019-02-23T19:48:00.706Z,21.83
2019-02-23T19:50:31.371Z,18.70
2019-02-23T19:53:00.235Z,16.90
2019-02-23T19:55:29.094Z,17.00
2019-02-23T19:57:57.987Z,16.50
2019-02-23T20:00:26.848Z,18.43
2019-02-23T20:02:55.806Z,19.00
2019-02-23T20:05:24.796Z,18.63
2019-02-23T20:07:53.699Z,21.53
2019-02-23T20:10:22.575Z,23.43
2019-02-23T20:12:51.467Z,25.53
2019-02-23T20:15:20.326Z,24.73
2019-02-23T20:17:49.240Z,22.57
2019-02-23T20:20:18.132Z,19.47
2019-02-23T20:22:47.014Z,19.73
2019-02-23T20:25:15.928Z,27.27
2019-02-23T20:27:44.771Z,23.50
2019-02-23T20:30:13.661Z,21.43
2019-02-23T20:32:42.477Z,20.10
2019-02-23T20:35:11.385Z,23.43
2019-02-23T20:37:40.565Z,20.00
2019-02-23T20:40:09.441Z,19.40
2019-02-23T20:42:38.349Z,19.53
2019-02-23T20:45:07.358Z,20.87
2019-02-23T20:47:36.205Z,17.07
2019-02-23T20:50:05.605Z,17.50
2019-02-23T20:52:34.457Z,16.80
2019-02-23T20:55:03.393Z,19.73
2019-02-23T20:57:32.288Z,19.63
2019-02-23T21:00:01.145Z,20.03
2019-02-23T21:02:29.989Z,20.13
2019-02-23T21:04:58.892Z,19.80
2019-02-23T21:07:27.779Z,18.43
2019-02-23T21:09:56.795Z,20.43
2019-02-23T21:12:25.738Z,21.33
2019-02-23T21:14:54.621Z,26.53
2019-02-23T21:17:23.454Z,23.17
2019-02-23T21:19:52.325Z,20.00
2019-02-23T21:22:21.292Z,18.20
2019-02-23T21:24:50.186Z,17.23
2019-02-23T21:27:19.050Z,17.30
2019-02-23T21:29:47.950Z,17.33
2019-02-23T21:32:16.866Z,17.80
2019-02-23T21:34:45.740Z,19.37
2019-02-23T21:37:14.579Z,18.80
2019-02-23T21:39:43.533Z,17.27
2019-02-23T21:42:12.402Z,17.07
2019-02-23T21:44:41.267Z,18.00
2019-02-23T21:47:10.133Z,17.27
2019-02-23T21:49:39.015Z,18.40
2019-02-23T21:52:07.849Z,18.23
2019-02-23T21:54:36.713Z,17.67
2019-02-23T21:57:05.642Z,18.70
2019-02-23T21:59:34.475Z,18.80
2019-02-23T22:02:03.327Z,16.83
2019-02-23T22:04:32.177Z,20.27
2019-02-23T22:07:01.092Z,20.20
2019-02-23T22:09:29.921Z,21.17
2019-02-23T22:11:58.850Z,23.60
2019-02-23T22:14:27.703Z,27.57
2019-02-23T22:16:56.635Z,28.53
2019-02-23T22:19:25.559Z,32.57
2019-02-23T22:21:54.402Z,23.73
2019-02-23T22:24:23.435Z,21.77
2019-02-23T22:26:52.422Z,17.90
2019-02-23T22:29:21.327Z,20.63
2019-02-23T22:31:50.216Z,17.90
2019-02-23T22:34:19.200Z,20.63
2019-02-23T22:36:48.076Z,24.23
2019-02-23T22:39:16.928Z,19.17
2019-02-23T22:41:49.667Z,19.60
2019-02-23T22:44:16.283Z,21.33
2019-02-23T22:46:45.178Z,20.43
2019-02-23T22:49:14.019Z,18.03
2019-02-23T22:51:42.879Z,20.03
2019-02-23T22:54:11.741Z,20.73
2019-02-23T22:56:40.609Z,18.40
2019-02-23T22:59:09.434Z,16.97
2019-02-23T23:01:38.327Z,15.23
2019-02-23T23:04:07.409Z,17.63
2019-02-23T23:06:36.273Z,17.23
2019-02-23T23:09:07.119Z,17.97
2019-02-23T23:11:36.022Z,17.97
2019-02-23T23:14:04.899Z,18.40
2019-02-23T23:16:33.808Z,16.70
2019-02-23T23:19:02.637Z,17.80
2019-02-23T23:21:31.693Z,19.40
2019-02-23T23:24:00.570Z,16.90
2019-02-23T23:26:29.555Z,18.27
2019-02-23T23:28:58.409Z,17.67
2019-02-23T23:31:27.327Z,20.37
2019-02-23T23:33:56.190Z,15.47
2019-02-23T23:36:25.056Z,16.33
2019-02-23T23:38:53.951Z,18.13
2019-02-23T23:41:22.777Z,17.73
2019-02-23T23:43:51.628Z,17.93
2019-02-23T23:46:20.586Z,18.80
2019-02-23T23:48:49.364Z,17.57
2019-02-23T23:51:18.763Z,19.40
2019-02-23T23:53:47.751Z,14.77
2019-02-23T23:56:16.735Z,17.87
2019-02-23T23:58:45.594Z,18.23
